sensor_id;sensor_type;location;lat;lon;timestamp;P1;durP1;ratioP1;P2;durP2;ratioP2
76693;SDS011;69667;52.136;5.424;2023-08-21T00:00:53;2.55;;;0.70;;
76693;SDS011;69667;52.136;5.424;2023-08-21T00:03:21;1.88;;;0.80;;
76693;SDS011;69667;52.136;5.424;2023-08-21T00:08:18;3.42;;;1.25;;
76693;SDS011;69667;52.136;5.424;2023-08-21T00:10:46;3.60;;;0.85;;
76693;SDS011;69667;52.136;5.424;2023-08-21T00:13:14;1.38;;;0.80;;
76693;SDS011;69667;52.136;5.424;2023-08-21T00:15:43;3.20;;;1.00;;
76693;SDS011;69667;52.136;5.424;2023-08-21T00:18:11;1.63;;;0.70;;
76693;SDS011;69667;52.136;5.424;2023-08-21T00:20:39;3.75;;;0.88;;
76693;SDS011;69667;52.136;5.424;2023-08-21T00:23:09;3.65;;;1.45;;
76693;SDS011;69667;52.136;5.424;2023-08-21T00:25:38;2.17;;;1.00;;
76693;SDS011;69667;52.136;5.424;2023-08-21T00:28:06;2.67;;;0.80;;
76693;SDS011;69667;52.136;5.424;2023-08-21T00:30:35;2.05;;;1.05;;
76693;SDS011;69667;52.136;5.424;2023-08-21T00:33:03;2.75;;;1.05;;
76693;SDS011;69667;52.136;5.424;2023-08-21T00:35:32;3.38;;;0.80;;
76693;SDS011;69667;52.136;5.424;2023-08-21T00:38:00;6.82;;;1.27;;
76693;SDS011;69667;52.136;5.424;2023-08-21T00:40:28;2.83;;;1.05;;
76693;SDS011;69667;52.136;5.424;2023-08-21T00:43:00;1.05;;;0.50;;
76693;SDS011;69667;52.136;5.424;2023-08-21T00:45:28;2.70;;;0.80;;
76693;SDS011;69667;52.136;5.424;2023-08-21T00:47:56;1.23;;;0.70;;
76693;SDS011;69667;52.136;5.424;2023-08-21T00:50:24;2.60;;;1.10;;
76693;SDS011;69667;52.136;5.424;2023-08-21T00:52:53;2.00;;;1.00;;
76693;SDS011;69667;52.136;5.424;2023-08-21T00:55:22;1.92;;;0.85;;
76693;SDS011;69667;52.136;5.424;2023-08-21T01:00:19;2.80;;;0.80;;
76693;SDS011;69667;52.136;5.424;2023-08-21T01:02:49;1.63;;;0.77;;
76693;SDS011;69667;52.136;5.424;2023-08-21T01:05:21;2.22;;;1.00;;
76693;SDS011;69667;52.136;5.424;2023-08-21T01:07:56;1.05;;;0.57;;
76693;SDS011;69667;52.136;5.424;2023-08-21T01:10:35;3.88;;;1.02;;
76693;SDS011;69667;52.136;5.424;2023-08-21T01:13:09;2.53;;;1.20;;
76693;SDS011;69667;52.136;5.424;2023-08-21T01:15:59;1.60;;;0.57;;
76693;SDS011;69667;52.136;5.424;2023-08-21T01:18:28;1.50;;;0.73;;
76693;SDS011;69667;52.136;5.424;2023-08-21T01:20:57;2.38;;;0.63;;
76693;SDS011;69667;52.136;5.424;2023-08-21T01:23:30;4.50;;;0.90;;
76693;SDS011;69667;52.136;5.424;2023-08-21T01:26:02;3.50;;;1.05;;
76693;SDS011;69667;52.136;5.424;2023-08-21T01:28:32;3.10;;;0.90;;
76693;SDS011;69667;52.136;5.424;2023-08-21T01:33:33;4.22;;;0.90;;
76693;SDS011;69667;52.136;5.424;2023-08-21T01:36:05;2.22;;;0.90;;
76693;SDS011;69667;52.136;5.424;2023-08-21T01:38:33;2.42;;;0.80;;
76693;SDS011;69667;52.136;5.424;2023-08-21T01:41:02;4.38;;;0.82;;
76693;SDS011;69667;52.136;5.424;2023-08-21T01:43:30;1.58;;;0.68;;
76693;SDS011;69667;52.136;5.424;2023-08-21T01:45:59;1.85;;;0.85;;
76693;SDS011;69667;52.136;5.424;2023-08-21T01:48:29;3.33;;;0.80;;
76693;SDS011;69667;52.136;5.424;2023-08-21T01:51:00;1.70;;;0.80;;
76693;SDS011;69667;52.136;5.424;2023-08-21T01:53:29;1.67;;;0.70;;
76693;SDS011;69667;52.136;5.424;2023-08-21T01:55:57;3.42;;;0.60;;
76693;SDS011;69667;52.136;5.424;2023-08-21T01:58:26;3.35;;;1.08;;
76693;SDS011;69667;52.136;5.424;2023-08-21T02:00:54;2.10;;;1.00;;
76693;SDS011;69667;52.136;5.424;2023-08-21T02:03:24;1.30;;;0.63;;
76693;SDS011;69667;52.136;5.424;2023-08-21T02:05:57;2.28;;;1.05;;
76693;SDS011;69667;52.136;5.424;2023-08-21T02:08:30;2.60;;;0.82;;
76693;SDS011;69667;52.136;5.424;2023-08-21T02:11:02;2.92;;;0.98;;
76693;SDS011;69667;52.136;5.424;2023-08-21T02:13:30;3.60;;;0.90;;
76693;SDS011;69667;52.136;5.424;2023-08-21T02:16:00;2.83;;;0.77;;
76693;SDS011;69667;52.136;5.424;2023-08-21T02:18:28;2.63;;;1.17;;
76693;SDS011;69667;52.136;5.424;2023-08-21T02:20:57;1.85;;;0.82;;
76693;SDS011;69667;52.136;5.424;2023-08-21T02:23:25;1.80;;;0.90;;
76693;SDS011;69667;52.136;5.424;2023-08-21T02:25:53;2.25;;;0.95;;
76693;SDS011;69667;52.136;5.424;2023-08-21T02:28:22;4.45;;;1.08;;
76693;SDS011;69667;52.136;5.424;2023-08-21T02:30:51;3.72;;;1.50;;
76693;SDS011;69667;52.136;5.424;2023-08-21T02:33:19;5.97;;;1.50;;
76693;SDS011;69667;52.136;5.424;2023-08-21T02:35:47;4.80;;;1.67;;
76693;SDS011;69667;52.136;5.424;2023-08-21T02:38:15;1.95;;;1.05;;
76693;SDS011;69667;52.136;5.424;2023-08-21T02:40:44;1.88;;;1.20;;
76693;SDS011;69667;52.136;5.424;2023-08-21T02:43:12;3.63;;;1.00;;
76693;SDS011;69667;52.136;5.424;2023-08-21T02:45:40;3.20;;;1.17;;
76693;SDS011;69667;52.136;5.424;2023-08-21T02:50:37;1.58;;;0.80;;
76693;SDS011;69667;52.136;5.424;2023-08-21T02:53:05;4.25;;;1.30;;
76693;SDS011;69667;52.136;5.424;2023-08-21T02:55:33;4.47;;;1.00;;
76693;SDS011;69667;52.136;5.424;2023-08-21T02:58:02;4.95;;;1.08;;
76693;SDS011;69667;52.136;5.424;2023-08-21T03:00:30;2.55;;;0.80;;
76693;SDS011;69667;52.136;5.424;2023-08-21T03:02:59;5.15;;;1.23;;
76693;SDS011;69667;52.136;5.424;2023-08-21T03:05:27;4.03;;;1.00;;
76693;SDS011;69667;52.136;5.424;2023-08-21T03:07:55;2.42;;;1.20;;
76693;SDS011;69667;52.136;5.424;2023-08-21T03:10:23;2.15;;;0.98;;
76693;SDS011;69667;52.136;5.424;2023-08-21T03:12:52;2.22;;;1.10;;
76693;SDS011;69667;52.136;5.424;2023-08-21T03:15:20;2.83;;;1.20;;
76693;SDS011;69667;52.136;5.424;2023-08-21T03:17:48;1.30;;;0.77;;
76693;SDS011;69667;52.136;5.424;2023-08-21T03:20:16;2.88;;;1.10;;
76693;SDS011;69667;52.136;5.424;2023-08-21T03:22:46;3.97;;;1.17;;
76693;SDS011;69667;52.136;5.424;2023-08-21T03:25:14;3.75;;;1.33;;
76693;SDS011;69667;52.136;5.424;2023-08-21T03:27:43;1.70;;;0.80;;
76693;SDS011;69667;52.136;5.424;2023-08-21T03:30:11;2.20;;;1.08;;
76693;SDS011;69667;52.136;5.424;2023-08-21T03:32:42;1.60;;;0.82;;
76693;SDS011;69667;52.136;5.424;2023-08-21T03:35:11;1.98;;;0.90;;
76693;SDS011;69667;52.136;5.424;2023-08-21T03:37:41;2.65;;;1.00;;
76693;SDS011;69667;52.136;5.424;2023-08-21T03:40:12;1.73;;;0.90;;
76693;SDS011;69667;52.136;5.424;2023-08-21T03:42:41;2.08;;;1.13;;
76693;SDS011;69667;52.136;5.424;2023-08-21T03:45:10;2.05;;;0.90;;
76693;SDS011;69667;52.136;5.424;2023-08-21T03:47:38;1.58;;;0.98;;
76693;SDS011;69667;52.136;5.424;2023-08-21T03:50:15;1.98;;;1.02;;
76693;SDS011;69667;52.136;5.424;2023-08-21T03:52:43;1.45;;;0.73;;
76693;SDS011;69667;52.136;5.424;2023-08-21T03:55:11;2.28;;;1.08;;
76693;SDS011;69667;52.136;5.424;2023-08-21T03:57:42;3.40;;;1.08;;
76693;SDS011;69667;52.136;5.424;2023-08-21T04:00:10;1.95;;;0.95;;
76693;SDS011;69667;52.136;5.424;2023-08-21T04:02:42;3.25;;;1.10;;
76693;SDS011;69667;52.136;5.424;2023-08-21T04:05:11;2.10;;;0.98;;
76693;SDS011;69667;52.136;5.424;2023-08-21T04:07:39;3.33;;;0.98;;
76693;SDS011;69667;52.136;5.424;2023-08-21T04:10:08;2.13;;;1.05;;
76693;SDS011;69667;52.136;5.424;2023-08-21T04:12:36;1.95;;;0.73;;
76693;SDS011;69667;52.136;5.424;2023-08-21T04:15:05;4.63;;;1.20;;
76693;SDS011;69667;52.136;5.424;2023-08-21T04:17:34;2.90;;;1.05;;
76693;SDS011;69667;52.136;5.424;2023-08-21T04:20:03;1.77;;;0.68;;
76693;SDS011;69667;52.136;5.424;2023-08-21T04:22:33;2.22;;;0.80;;
76693;SDS011;69667;52.136;5.424;2023-08-21T04:25:03;1.95;;;1.10;;
76693;SDS011;69667;52.136;5.424;2023-08-21T04:27:31;1.38;;;0.65;;
76693;SDS011;69667;52.136;5.424;2023-08-21T04:30:00;2.63;;;1.10;;
76693;SDS011;69667;52.136;5.424;2023-08-21T04:32:28;2.53;;;0.90;;
76693;SDS011;69667;52.136;5.424;2023-08-21T04:34:57;3.67;;;1.13;;
76693;SDS011;69667;52.136;5.424;2023-08-21T04:39:53;2.88;;;1.00;;
76693;SDS011;69667;52.136;5.424;2023-08-21T04:42:22;1.73;;;0.90;;
76693;SDS011;69667;52.136;5.424;2023-08-21T04:44:50;2.50;;;0.93;;
76693;SDS011;69667;52.136;5.424;2023-08-21T04:47:22;3.63;;;0.90;;
76693;SDS011;69667;52.136;5.424;2023-08-21T04:49:56;5.20;;;0.98;;
76693;SDS011;69667;52.136;5.424;2023-08-21T04:52:24;2.20;;;0.75;;
76693;SDS011;69667;52.136;5.424;2023-08-21T04:54:54;2.33;;;0.90;;
76693;SDS011;69667;52.136;5.424;2023-08-21T04:59:50;1.85;;;1.00;;
76693;SDS011;69667;52.136;5.424;2023-08-21T05:02:20;2.40;;;0.95;;
76693;SDS011;69667;52.136;5.424;2023-08-21T05:04:50;3.25;;;1.10;;
76693;SDS011;69667;52.136;5.424;2023-08-21T05:09:47;2.30;;;0.80;;
76693;SDS011;69667;52.136;5.424;2023-08-21T05:12:18;1.50;;;0.82;;
76693;SDS011;69667;52.136;5.424;2023-08-21T05:14:46;5.38;;;1.10;;
76693;SDS011;69667;52.136;5.424;2023-08-21T05:17:14;1.95;;;0.80;;
76693;SDS011;69667;52.136;5.424;2023-08-21T05:19:42;3.72;;;1.10;;
76693;SDS011;69667;52.136;5.424;2023-08-21T05:22:11;3.72;;;1.02;;
76693;SDS011;69667;52.136;5.424;2023-08-21T05:24:40;2.08;;;1.00;;
76693;SDS011;69667;52.136;5.424;2023-08-21T05:27:08;3.17;;;1.40;;
76693;SDS011;69667;52.136;5.424;2023-08-21T05:29:36;3.00;;;1.67;;
76693;SDS011;69667;52.136;5.424;2023-08-21T05:32:05;3.03;;;1.30;;
76693;SDS011;69667;52.136;5.424;2023-08-21T05:34:35;2.38;;;1.40;;
76693;SDS011;69667;52.136;5.424;2023-08-21T05:37:04;4.25;;;1.60;;
76693;SDS011;69667;52.136;5.424;2023-08-21T05:39:32;4.53;;;1.25;;
76693;SDS011;69667;52.136;5.424;2023-08-21T05:42:01;3.20;;;1.27;;
76693;SDS011;69667;52.136;5.424;2023-08-21T05:44:30;2.90;;;1.70;;
76693;SDS011;69667;52.136;5.424;2023-08-21T05:46:58;3.75;;;1.63;;
76693;SDS011;69667;52.136;5.424;2023-08-21T05:49:27;4.05;;;1.70;;
76693;SDS011;69667;52.136;5.424;2023-08-21T05:51:56;4.18;;;1.50;;
76693;SDS011;69667;52.136;5.424;2023-08-21T05:54:26;5.78;;;1.63;;
76693;SDS011;69667;52.136;5.424;2023-08-21T05:56:56;3.88;;;2.25;;
76693;SDS011;69667;52.136;5.424;2023-08-21T05:59:27;6.40;;;1.83;;
76693;SDS011;69667;52.136;5.424;2023-08-21T06:01:59;3.30;;;1.92;;
76693;SDS011;69667;52.136;5.424;2023-08-21T06:07:01;3.30;;;1.63;;
76693;SDS011;69667;52.136;5.424;2023-08-21T06:09:30;6.97;;;1.90;;
76693;SDS011;69667;52.136;5.424;2023-08-21T06:12:01;4.22;;;1.70;;
76693;SDS011;69667;52.136;5.424;2023-08-21T06:14:33;5.47;;;1.40;;
76693;SDS011;69667;52.136;5.424;2023-08-21T06:17:03;3.45;;;1.23;;
76693;SDS011;69667;52.136;5.424;2023-08-21T06:19:32;6.85;;;1.50;;
76693;SDS011;69667;52.136;5.424;2023-08-21T06:22:00;3.72;;;1.48;;
76693;SDS011;69667;52.136;5.424;2023-08-21T06:24:29;2.45;;;1.50;;
76693;SDS011;69667;52.136;5.424;2023-08-21T06:27:01;5.53;;;1.60;;
76693;SDS011;69667;52.136;5.424;2023-08-21T06:29:34;2.78;;;1.30;;
76693;SDS011;69667;52.136;5.424;2023-08-21T06:34:30;2.67;;;1.45;;
76693;SDS011;69667;52.136;5.424;2023-08-21T06:36:59;3.45;;;1.25;;
76693;SDS011;69667;52.136;5.424;2023-08-21T06:39:27;2.35;;;1.20;;
76693;SDS011;69667;52.136;5.424;2023-08-21T06:41:55;2.40;;;1.05;;
76693;SDS011;69667;52.136;5.424;2023-08-21T06:44:31;1.75;;;0.95;;
76693;SDS011;69667;52.136;5.424;2023-08-21T06:49:27;4.28;;;1.50;;
76693;SDS011;69667;52.136;5.424;2023-08-21T06:51:55;4.50;;;1.55;;
76693;SDS011;69667;52.136;5.424;2023-08-21T06:56:52;3.05;;;1.00;;
76693;SDS011;69667;52.136;5.424;2023-08-21T07:01:48;3.35;;;1.00;;
76693;SDS011;69667;52.136;5.424;2023-08-21T07:04:17;5.10;;;1.30;;
76693;SDS011;69667;52.136;5.424;2023-08-21T07:09:13;5.30;;;1.15;;
76693;SDS011;69667;52.136;5.424;2023-08-21T07:11:41;1.75;;;0.80;;
76693;SDS011;69667;52.136;5.424;2023-08-21T07:14:09;3.92;;;1.08;;
76693;SDS011;69667;52.136;5.424;2023-08-21T07:16:40;3.67;;;0.95;;
76693;SDS011;69667;52.136;5.424;2023-08-21T07:19:09;1.40;;;0.80;;
76693;SDS011;69667;52.136;5.424;2023-08-21T07:21:37;1.80;;;0.80;;
76693;SDS011;69667;52.136;5.424;2023-08-21T07:24:05;2.13;;;0.93;;
76693;SDS011;69667;52.136;5.424;2023-08-21T07:26:34;3.13;;;1.15;;
76693;SDS011;69667;52.136;5.424;2023-08-21T07:29:02;1.80;;;0.68;;
76693;SDS011;69667;52.136;5.424;2023-08-21T07:31:32;1.92;;;0.98;;
76693;SDS011;69667;52.136;5.424;2023-08-21T07:34:00;2.05;;;0.70;;
76693;SDS011;69667;52.136;5.424;2023-08-21T07:36:28;2.85;;;1.20;;
76693;SDS011;69667;52.136;5.424;2023-08-21T07:38:58;1.20;;;0.55;;
76693;SDS011;69667;52.136;5.424;2023-08-21T07:41:27;2.65;;;0.80;;
76693;SDS011;69667;52.136;5.424;2023-08-21T07:43:56;1.80;;;0.70;;
76693;SDS011;69667;52.136;5.424;2023-08-21T07:46:24;2.75;;;0.60;;
76693;SDS011;69667;52.136;5.424;2023-08-21T07:48:52;2.20;;;0.50;;
76693;SDS011;69667;52.136;5.424;2023-08-21T07:51:21;1.52;;;0.73;;
76693;SDS011;69667;52.136;5.424;2023-08-21T07:53:49;3.22;;;0.90;;
76693;SDS011;69667;52.136;5.424;2023-08-21T07:56:17;1.98;;;0.70;;
76693;SDS011;69667;52.136;5.424;2023-08-21T07:58:46;1.80;;;0.70;;
76693;SDS011;69667;52.136;5.424;2023-08-21T08:01:14;4.18;;;0.80;;
76693;SDS011;69667;52.136;5.424;2023-08-21T08:03:42;2.00;;;0.90;;
76693;SDS011;69667;52.136;5.424;2023-08-21T08:06:11;3.00;;;0.75;;
76693;SDS011;69667;52.136;5.424;2023-08-21T08:08:39;4.30;;;0.73;;
76693;SDS011;69667;52.136;5.424;2023-08-21T08:11:07;1.85;;;1.00;;
76693;SDS011;69667;52.136;5.424;2023-08-21T08:13:35;1.25;;;0.60;;
76693;SDS011;69667;52.136;5.424;2023-08-21T08:16:04;2.45;;;0.95;;
76693;SDS011;69667;52.136;5.424;2023-08-21T08:18:32;3.60;;;0.90;;
76693;SDS011;69667;52.136;5.424;2023-08-21T08:21:00;2.20;;;0.77;;
76693;SDS011;69667;52.136;5.424;2023-08-21T08:23:28;2.70;;;0.60;;
76693;SDS011;69667;52.136;5.424;2023-08-21T08:25:57;3.05;;;0.63;;
76693;SDS011;69667;52.136;5.424;2023-08-21T08:28:25;3.60;;;0.95;;
76693;SDS011;69667;52.136;5.424;2023-08-21T08:30:53;1.50;;;0.60;;
76693;SDS011;69667;52.136;5.424;2023-08-21T08:33:22;1.67;;;0.50;;
76693;SDS011;69667;52.136;5.424;2023-08-21T08:35:50;1.30;;;0.68;;
76693;SDS011;69667;52.136;5.424;2023-08-21T08:38:18;2.15;;;0.73;;
76693;SDS011;69667;52.136;5.424;2023-08-21T08:40:47;2.85;;;0.70;;
76693;SDS011;69667;52.136;5.424;2023-08-21T08:43:19;2.60;;;0.70;;
76693;SDS011;69667;52.136;5.424;2023-08-21T08:45:47;1.50;;;0.60;;
76693;SDS011;69667;52.136;5.424;2023-08-21T08:48:19;1.27;;;0.50;;
76693;SDS011;69667;52.136;5.424;2023-08-21T08:50:48;2.83;;;0.70;;
76693;SDS011;69667;52.136;5.424;2023-08-21T08:53:18;3.70;;;0.98;;
76693;SDS011;69667;52.136;5.424;2023-08-21T08:55:47;1.55;;;0.40;;
76693;SDS011;69667;52.136;5.424;2023-08-21T08:58:16;1.75;;;0.80;;
76693;SDS011;69667;52.136;5.424;2023-08-21T09:00:44;2.17;;;0.80;;
76693;SDS011;69667;52.136;5.424;2023-08-21T09:03:13;2.38;;;0.82;;
76693;SDS011;69667;52.136;5.424;2023-08-21T09:05:43;1.05;;;0.60;;
76693;SDS011;69667;52.136;5.424;2023-08-21T09:08:11;1.52;;;0.80;;
76693;SDS011;69667;52.136;5.424;2023-08-21T09:10:41;2.13;;;0.70;;
76693;SDS011;69667;52.136;5.424;2023-08-21T09:13:13;2.63;;;0.80;;
76693;SDS011;69667;52.136;5.424;2023-08-21T09:15:44;1.27;;;0.70;;
76693;SDS011;69667;52.136;5.424;2023-08-21T09:18:15;2.42;;;0.57;;
76693;SDS011;69667;52.136;5.424;2023-08-21T09:20:43;2.33;;;0.70;;
76693;SDS011;69667;52.136;5.424;2023-08-21T09:23:16;2.67;;;1.48;;
76693;SDS011;69667;52.136;5.424;2023-08-21T09:25:45;2.08;;;0.90;;
76693;SDS011;69667;52.136;5.424;2023-08-21T09:28:18;2.67;;;0.90;;
76693;SDS011;69667;52.136;5.424;2023-08-21T09:30:51;2.53;;;0.93;;
76693;SDS011;69667;52.136;5.424;2023-08-21T09:33:22;3.28;;;0.75;;
76693;SDS011;69667;52.136;5.424;2023-08-21T09:35:52;3.35;;;0.68;;
76693;SDS011;69667;52.136;5.424;2023-08-21T09:38:21;2.47;;;0.70;;
76693;SDS011;69667;52.136;5.424;2023-08-21T09:40:50;1.00;;;0.50;;
76693;SDS011;69667;52.136;5.424;2023-08-21T09:43:20;1.83;;;0.70;;
76693;SDS011;69667;52.136;5.424;2023-08-21T09:45:51;3.60;;;0.95;;
76693;SDS011;69667;52.136;5.424;2023-08-21T09:48:23;1.77;;;0.52;;
76693;SDS011;69667;52.136;5.424;2023-08-21T09:50:54;1.67;;;0.65;;
76693;SDS011;69667;52.136;5.424;2023-08-21T09:53:23;2.58;;;0.60;;
76693;SDS011;69667;52.136;5.424;2023-08-21T09:55:54;2.15;;;0.70;;
76693;SDS011;69667;52.136;5.424;2023-08-21T09:58:23;1.67;;;0.73;;
76693;SDS011;69667;52.136;5.424;2023-08-21T10:00:52;3.35;;;0.52;;
76693;SDS011;69667;52.136;5.424;2023-08-21T10:03:24;2.20;;;0.90;;
76693;SDS011;69667;52.136;5.424;2023-08-21T10:05:55;1.55;;;0.70;;
76693;SDS011;69667;52.136;5.424;2023-08-21T10:08:25;1.70;;;0.88;;
76693;SDS011;69667;52.136;5.424;2023-08-21T10:10:55;2.15;;;0.63;;
76693;SDS011;69667;52.136;5.424;2023-08-21T10:13:24;3.15;;;1.00;;
76693;SDS011;69667;52.136;5.424;2023-08-21T10:15:52;2.40;;;0.80;;
76693;SDS011;69667;52.136;5.424;2023-08-21T10:18:21;1.50;;;0.70;;
76693;SDS011;69667;52.136;5.424;2023-08-21T10:20:52;2.45;;;0.82;;
76693;SDS011;69667;52.136;5.424;2023-08-21T10:23:24;2.33;;;0.80;;
76693;SDS011;69667;52.136;5.424;2023-08-21T10:34:34;1.65;;;0.70;;
76693;SDS011;69667;52.136;5.424;2023-08-21T10:37:06;1.73;;;0.65;;
76693;SDS011;69667;52.136;5.424;2023-08-21T10:39:52;1.98;;;0.65;;
76693;SDS011;69667;52.136;5.424;2023-08-21T10:42:39;3.67;;;0.68;;
76693;SDS011;69667;52.136;5.424;2023-08-21T10:45:10;1.67;;;0.65;;
76693;SDS011;69667;52.136;5.424;2023-08-21T10:47:39;2.97;;;0.90;;
76693;SDS011;69667;52.136;5.424;2023-08-21T10:50:07;1.20;;;0.60;;
76693;SDS011;69667;52.136;5.424;2023-08-21T10:52:38;1.25;;;0.50;;
76693;SDS011;69667;52.136;5.424;2023-08-21T10:55:12;1.90;;;0.98;;
76693;SDS011;69667;52.136;5.424;2023-08-21T10:57:42;1.65;;;0.70;;
76693;SDS011;69667;52.136;5.424;2023-08-21T11:00:11;1.23;;;0.50;;
76693;SDS011;69667;52.136;5.424;2023-08-21T11:02:44;1.00;;;0.40;;
76693;SDS011;69667;52.136;5.424;2023-08-21T11:05:14;1.83;;;0.73;;
76693;SDS011;69667;52.136;5.424;2023-08-21T11:07:44;1.63;;;0.68;;
76693;SDS011;69667;52.136;5.424;2023-08-21T11:10:17;1.60;;;0.73;;
76693;SDS011;69667;52.136;5.424;2023-08-21T11:12:50;1.00;;;0.40;;
76693;SDS011;69667;52.136;5.424;2023-08-21T11:15:20;0.95;;;0.63;;
76693;SDS011;69667;52.136;5.424;2023-08-21T11:17:57;2.00;;;0.85;;
76693;SDS011;69667;52.136;5.424;2023-08-21T11:20:30;3.17;;;0.80;;
76693;SDS011;69667;52.136;5.424;2023-08-21T11:22:59;1.98;;;0.60;;
76693;SDS011;69667;52.136;5.424;2023-08-21T11:25:38;1.10;;;0.57;;
76693;SDS011;69667;52.136;5.424;2023-08-21T11:28:07;1.20;;;0.60;;
76693;SDS011;69667;52.136;5.424;2023-08-21T11:30:35;1.33;;;0.60;;
76693;SDS011;69667;52.136;5.424;2023-08-21T11:33:13;1.80;;;0.75;;
76693;SDS011;69667;52.136;5.424;2023-08-21T11:35:41;1.73;;;0.75;;
76693;SDS011;69667;52.136;5.424;2023-08-21T11:38:14;3.28;;;0.70;;
76693;SDS011;69667;52.136;5.424;2023-08-21T11:40:57;1.65;;;0.52;;
76693;SDS011;69667;52.136;5.424;2023-08-21T11:43:39;2.30;;;0.75;;
76693;SDS011;69667;52.136;5.424;2023-08-21T11:46:09;2.13;;;0.65;;
76693;SDS011;69667;52.136;5.424;2023-08-21T11:48:39;0.85;;;0.50;;
76693;SDS011;69667;52.136;5.424;2023-08-21T11:51:08;1.45;;;0.50;;
76693;SDS011;69667;52.136;5.424;2023-08-21T11:53:41;1.73;;;0.60;;
76693;SDS011;69667;52.136;5.424;2023-08-21T11:56:13;1.58;;;0.43;;
76693;SDS011;69667;52.136;5.424;2023-08-21T11:58:45;1.65;;;0.47;;
76693;SDS011;69667;52.136;5.424;2023-08-21T12:01:19;2.00;;;0.60;;
76693;SDS011;69667;52.136;5.424;2023-08-21T12:03:48;1.10;;;0.50;;
76693;SDS011;69667;52.136;5.424;2023-08-21T12:06:23;1.77;;;0.40;;
76693;SDS011;69667;52.136;5.424;2023-08-21T12:08:53;2.17;;;0.77;;
76693;SDS011;69667;52.136;5.424;2023-08-21T12:11:21;1.05;;;0.43;;
76693;SDS011;69667;52.136;5.424;2023-08-21T12:13:50;0.90;;;0.50;;
76693;SDS011;69667;52.136;5.424;2023-08-21T12:16:19;1.70;;;0.52;;
76693;SDS011;69667;52.136;5.424;2023-08-21T12:18:47;1.33;;;0.50;;
76693;SDS011;69667;52.136;5.424;2023-08-21T12:21:15;1.55;;;0.40;;
76693;SDS011;69667;52.136;5.424;2023-08-21T12:23:44;2.40;;;0.50;;
76693;SDS011;69667;52.136;5.424;2023-08-21T12:26:12;2.17;;;0.52;;
76693;SDS011;69667;52.136;5.424;2023-08-21T12:28:48;1.05;;;0.40;;
76693;SDS011;69667;52.136;5.424;2023-08-21T12:31:16;1.35;;;0.50;;
76693;SDS011;69667;52.136;5.424;2023-08-21T12:33:45;1.70;;;0.50;;
76693;SDS011;69667;52.136;5.424;2023-08-21T12:36:13;1.33;;;0.70;;
76693;SDS011;69667;52.136;5.424;2023-08-21T12:38:41;1.98;;;0.60;;
76693;SDS011;69667;52.136;5.424;2023-08-21T12:41:09;1.10;;;0.57;;
76693;SDS011;69667;52.136;5.424;2023-08-21T12:43:38;1.60;;;0.65;;
76693;SDS011;69667;52.136;5.424;2023-08-21T12:46:06;2.33;;;0.80;;
76693;SDS011;69667;52.136;5.424;2023-08-21T12:48:35;2.22;;;0.70;;
76693;SDS011;69667;52.136;5.424;2023-08-21T12:51:03;1.95;;;0.60;;
76693;SDS011;69667;52.136;5.424;2023-08-21T12:53:32;1.77;;;0.70;;
76693;SDS011;69667;52.136;5.424;2023-08-21T12:56:00;1.70;;;0.60;;
76693;SDS011;69667;52.136;5.424;2023-08-21T12:58:29;2.35;;;0.70;;
76693;SDS011;69667;52.136;5.424;2023-08-21T13:00:58;2.25;;;1.10;;
76693;SDS011;69667;52.136;5.424;2023-08-21T13:03:26;2.47;;;0.98;;
76693;SDS011;69667;52.136;5.424;2023-08-21T13:05:55;1.92;;;1.00;;
76693;SDS011;69667;52.136;5.424;2023-08-21T13:08:24;2.58;;;0.77;;
76693;SDS011;69667;52.136;5.424;2023-08-21T13:10:53;1.10;;;0.73;;
76693;SDS011;69667;52.136;5.424;2023-08-21T13:13:22;1.42;;;0.60;;
76693;SDS011;69667;52.136;5.424;2023-08-21T13:15:50;2.95;;;0.70;;
76693;SDS011;69667;52.136;5.424;2023-08-21T13:18:20;1.75;;;0.70;;
76693;SDS011;69667;52.136;5.424;2023-08-21T13:20:49;1.58;;;0.63;;
76693;SDS011;69667;52.136;5.424;2023-08-21T13:23:17;1.73;;;0.60;;
76693;SDS011;69667;52.136;5.424;2023-08-21T13:25:45;2.05;;;0.77;;
76693;SDS011;69667;52.136;5.424;2023-08-21T13:28:14;1.73;;;0.70;;
76693;SDS011;69667;52.136;5.424;2023-08-21T13:30:42;2.08;;;0.90;;
76693;SDS011;69667;52.136;5.424;2023-08-21T13:33:10;3.08;;;0.70;;
76693;SDS011;69667;52.136;5.424;2023-08-21T13:35:38;1.50;;;0.47;;
76693;SDS011;69667;52.136;5.424;2023-08-21T13:38:07;1.25;;;0.52;;
76693;SDS011;69667;52.136;5.424;2023-08-21T13:40:35;2.03;;;0.57;;
76693;SDS011;69667;52.136;5.424;2023-08-21T13:43:03;1.00;;;0.50;;
76693;SDS011;69667;52.136;5.424;2023-08-21T13:45:32;1.25;;;0.60;;
76693;SDS011;69667;52.136;5.424;2023-08-21T13:48:00;1.23;;;0.60;;
76693;SDS011;69667;52.136;5.424;2023-08-21T13:50:34;1.65;;;0.63;;
76693;SDS011;69667;52.136;5.424;2023-08-21T13:53:02;1.95;;;0.52;;
76693;SDS011;69667;52.136;5.424;2023-08-21T13:55:34;1.95;;;0.57;;
76693;SDS011;69667;52.136;5.424;2023-08-21T13:58:02;1.55;;;0.70;;
76693;SDS011;69667;52.136;5.424;2023-08-21T14:00:30;2.17;;;0.68;;
76693;SDS011;69667;52.136;5.424;2023-08-21T14:02:59;1.60;;;0.57;;
76693;SDS011;69667;52.136;5.424;2023-08-21T14:05:37;4.75;;;0.68;;
76693;SDS011;69667;52.136;5.424;2023-08-21T14:08:05;1.67;;;0.80;;
76693;SDS011;69667;52.136;5.424;2023-08-21T14:10:34;0.98;;;0.50;;
76693;SDS011;69667;52.136;5.424;2023-08-21T14:13:02;2.03;;;0.55;;
76693;SDS011;69667;52.136;5.424;2023-08-21T14:15:31;1.30;;;0.60;;
76693;SDS011;69667;52.136;5.424;2023-08-21T14:17:59;2.00;;;0.70;;
76693;SDS011;69667;52.136;5.424;2023-08-21T14:20:27;2.50;;;0.70;;
76693;SDS011;69667;52.136;5.424;2023-08-21T14:22:56;1.33;;;0.70;;
76693;SDS011;69667;52.136;5.424;2023-08-21T14:25:24;3.13;;;0.85;;
76693;SDS011;69667;52.136;5.424;2023-08-21T14:27:52;1.17;;;0.57;;
76693;SDS011;69667;52.136;5.424;2023-08-21T14:30:21;0.88;;;0.57;;
76693;SDS011;69667;52.136;5.424;2023-08-21T14:32:49;1.50;;;0.50;;
76693;SDS011;69667;52.136;5.424;2023-08-21T14:35:17;2.05;;;1.05;;
76693;SDS011;69667;52.136;5.424;2023-08-21T14:37:45;1.95;;;0.63;;
76693;SDS011;69667;52.136;5.424;2023-08-21T14:40:14;1.27;;;0.50;;
76693;SDS011;69667;52.136;5.424;2023-08-21T14:42:42;2.92;;;0.70;;
76693;SDS011;69667;52.136;5.424;2023-08-21T14:45:10;1.75;;;0.52;;
76693;SDS011;69667;52.136;5.424;2023-08-21T14:47:38;1.17;;;0.50;;
76693;SDS011;69667;52.136;5.424;2023-08-21T14:50:08;3.95;;;0.50;;
76693;SDS011;69667;52.136;5.424;2023-08-21T14:52:37;1.60;;;0.75;;
76693;SDS011;69667;52.136;5.424;2023-08-21T14:55:08;0.90;;;0.40;;
76693;SDS011;69667;52.136;5.424;2023-08-21T14:57:37;1.73;;;0.50;;
76693;SDS011;69667;52.136;5.424;2023-08-21T15:00:05;1.58;;;0.30;;
76693;SDS011;69667;52.136;5.424;2023-08-21T15:02:35;1.05;;;0.60;;
76693;SDS011;69667;52.136;5.424;2023-08-21T15:05:04;0.90;;;0.50;;
76693;SDS011;69667;52.136;5.424;2023-08-21T15:07:33;5.93;;;0.80;;
76693;SDS011;69667;52.136;5.424;2023-08-21T15:10:02;1.40;;;0.60;;
76693;SDS011;69667;52.136;5.424;2023-08-21T15:12:30;1.55;;;0.70;;
76693;SDS011;69667;52.136;5.424;2023-08-21T15:14:58;1.45;;;0.65;;
76693;SDS011;69667;52.136;5.424;2023-08-21T15:17:26;1.23;;;0.52;;
76693;SDS011;69667;52.136;5.424;2023-08-21T15:19:55;1.70;;;0.50;;
76693;SDS011;69667;52.136;5.424;2023-08-21T15:22:23;2.75;;;0.88;;
76693;SDS011;69667;52.136;5.424;2023-08-21T15:27:40;1.73;;;0.55;;
76693;SDS011;69667;52.136;5.424;2023-08-21T15:30:08;3.00;;;0.60;;
76693;SDS011;69667;52.136;5.424;2023-08-21T15:32:38;1.08;;;0.40;;
76693;SDS011;69667;52.136;5.424;2023-08-21T15:35:11;0.90;;;0.40;;
76693;SDS011;69667;52.136;5.424;2023-08-21T15:37:39;2.75;;;0.60;;
76693;SDS011;69667;52.136;5.424;2023-08-21T15:40:08;2.85;;;0.60;;
76693;SDS011;69667;52.136;5.424;2023-08-21T15:42:36;0.95;;;0.50;;
76693;SDS011;69667;52.136;5.424;2023-08-21T15:45:05;0.60;;;0.40;;